Milborne Port, United Kingdom
Current Conditions -  °F | °C
As of 2:50 PM on Saturday 22 Nov 2014 (Local Time) from EGDY Reporting Station
Broken Clouds Broken Clouds  
Wind Chill: 57°   Ceiling: 1600
Heat Index: 57°   Visibility: 6mi
Dew Point: 52°   Wind: 2mph
Humidity: 82%   Direction: 350°N
Pressure: 29.88"   Gusts: NA
Location:  50.97°N, 2.46°W
Report Text: EGDY 221450Z AUTO 35002KT 9999 BKN016/// 14/11 Q1012
Loading
Personal Weather Stations






























Interactive Weather Map New forecast layout! Learn more

10-Day Weather Forecast

Advertisements
Track Severe Weather on mobile